createdAt,value
2022-11-23T00:01:24.278Z,99739.96
2022-11-23T00:04:52.006Z,99740.14
2022-11-23T00:08:22.252Z,99743.81
2022-11-23T00:11:50.317Z,99747.97
2022-11-23T00:15:18.404Z,99748.19
2022-11-23T00:18:54.555Z,99747.05
2022-11-23T00:22:22.619Z,99752.52
2022-11-23T00:29:32.518Z,99757.60
2022-11-23T00:33:13.681Z,99763.05
2022-11-23T00:37:01.707Z,99769.00
2022-11-23T00:40:29.796Z,99773.55
2022-11-23T00:43:56.996Z,99772.27
2022-11-23T00:47:23.902Z,99769.95
2022-11-23T00:50:51.179Z,99761.77
2022-11-23T00:54:18.787Z,99758.09
2022-11-23T00:57:46.232Z,99752.35
2022-11-23T01:01:15.270Z,99749.65
2022-11-23T01:04:43.099Z,99755.16
2022-11-23T01:08:10.703Z,99759.31
2022-11-23T01:11:38.275Z,99752.94
2022-11-23T01:15:05.974Z,99745.88
2022-11-23T01:18:33.054Z,99752.77
2022-11-23T01:22:01.683Z,99749.04
2022-11-23T01:25:31.669Z,99748.69
2022-11-23T01:29:02.413Z,99752.18
2022-11-23T01:32:32.119Z,99755.66
2022-11-23T01:35:59.312Z,99751.77
2022-11-23T01:39:26.738Z,99753.27
2022-11-23T01:42:57.274Z,99751.77
2022-11-23T01:46:52.879Z,99752.56
2022-11-23T01:50:23.018Z,99755.48
2022-11-23T01:53:53.281Z,99756.15
2022-11-23T01:57:24.515Z,99755.91
2022-11-23T02:00:51.307Z,99752.80
2022-11-23T02:04:22.655Z,99747.17
2022-11-23T02:07:51.654Z,99747.45
2022-11-23T02:11:19.425Z,99746.71
2022-11-23T02:14:48.013Z,99750.86
2022-11-23T02:18:18.425Z,99744.94
2022-11-23T02:21:45.766Z,99744.55
2022-11-23T02:25:21.845Z,99745.20
2022-11-23T02:28:53.810Z,99744.35
2022-11-23T02:32:24.866Z,99743.09
2022-11-23T02:36:00.657Z,99747.56
2022-11-23T02:39:33.674Z,99742.13
2022-11-23T02:47:13.047Z,99755.66
2022-11-23T02:50:45.579Z,99757.11
2022-11-23T02:54:15.947Z,99759.13
2022-11-23T02:57:42.700Z,99755.95
2022-11-23T03:01:10.479Z,99757.63
2022-11-23T03:04:37.881Z,99758.24
2022-11-23T03:08:05.303Z,99762.83
2022-11-23T03:11:33.522Z,99762.09
2022-11-23T03:15:02.429Z,99766.80
2022-11-23T03:18:30.709Z,99774.49
2022-11-23T03:21:57.753Z,99775.48
2022-11-23T03:25:25.275Z,99777.20
2022-11-23T03:28:54.542Z,99772.19
2022-11-23T03:32:22.729Z,99764.64
2022-11-23T03:35:52.323Z,99762.17
2022-11-23T03:39:22.706Z,99760.40
2022-11-23T03:43:13.460Z,99758.19
2022-11-23T03:46:41.336Z,99757.88
2022-11-23T03:50:09.956Z,99762.09
2022-11-23T03:53:37.084Z,99763.95
2022-11-23T03:57:03.780Z,99759.30
2022-11-23T04:00:35.008Z,99755.45
2022-11-23T04:04:02.346Z,99754.47
2022-11-23T04:07:49.448Z,99750.98
2022-11-23T04:11:16.639Z,99752.70
2022-11-23T04:14:46.831Z,99754.45
2022-11-23T04:18:14.056Z,99751.76
2022-11-23T04:21:41.496Z,99753.39
2022-11-23T04:25:09.255Z,99751.03
2022-11-23T04:28:36.449Z,99753.20
2022-11-23T04:32:03.293Z,99750.77
2022-11-23T04:35:30.808Z,99751.21
2022-11-23T04:38:58.591Z,99747.16
2022-11-23T04:42:33.701Z,99745.59
2022-11-23T04:46:01.538Z,99749.65
2022-11-23T04:49:29.773Z,99750.96
2022-11-23T04:52:56.826Z,99750.46
2022-11-23T04:56:28.285Z,99746.19
2022-11-23T04:59:55.438Z,99749.23
2022-11-23T05:03:24.289Z,99756.06
2022-11-23T05:06:51.550Z,99756.65
2022-11-23T05:10:18.701Z,99757.73
2022-11-23T05:13:46.320Z,99757.67
2022-11-23T05:17:13.121Z,99750.45
2022-11-23T05:20:41.266Z,99754.80
2022-11-23T05:24:22.706Z,99766.84
2022-11-23T05:28:07.542Z,99770.70
2022-11-23T05:31:44.194Z,99769.70
2022-11-23T05:35:14.575Z,99765.14
2022-11-23T05:38:41.891Z,99762.63
2022-11-23T05:42:13.220Z,99766.79
2022-11-23T05:45:41.997Z,99762.91
2022-11-23T05:49:10.937Z,99759.91
2022-11-23T05:52:38.041Z,99760.80
2022-11-23T05:56:05.401Z,99766.14
2022-11-23T05:59:35.310Z,99778.50
2022-11-23T06:03:05.450Z,99787.45
2022-11-23T06:06:32.398Z,99791.07
2022-11-23T06:09:59.463Z,99789.98
2022-11-23T06:13:26.680Z,99792.95
2022-11-23T06:16:54.030Z,99783.74
2022-11-23T06:20:42.173Z,99779.00
2022-11-23T06:24:09.553Z,99781.81
2022-11-23T06:27:37.453Z,99781.27
2022-11-23T06:31:09.483Z,99779.14
2022-11-23T06:34:36.730Z,99786.10
2022-11-23T06:38:03.940Z,99790.27
2022-11-23T06:41:32.658Z,99793.17
2022-11-23T06:45:02.195Z,99793.10
2022-11-23T06:48:30.289Z,99796.02
2022-11-23T06:51:58.180Z,99799.86
2022-11-23T06:55:25.404Z,99806.37
2022-11-23T06:58:52.980Z,99811.33
2022-11-23T07:02:22.627Z,99811.47
2022-11-23T07:05:49.375Z,99808.96
2022-11-23T07:09:18.337Z,99809.87
2022-11-23T07:13:06.892Z,99804.76
2022-11-23T07:16:36.978Z,99800.45
2022-11-23T07:20:03.745Z,99796.65
2022-11-23T07:23:31.743Z,99793.79
2022-11-23T07:26:58.676Z,99798.35
2022-11-23T07:30:29.312Z,99797.05
2022-11-23T07:33:58.532Z,99803.23
2022-11-23T07:37:26.097Z,99805.15
2022-11-23T07:40:53.716Z,99809.40
2022-11-23T07:44:31.984Z,99818.48
2022-11-23T07:48:03.619Z,99822.05
2022-11-23T07:51:37.162Z,99827.40
2022-11-23T07:55:02.205Z,99829.86
2022-11-23T07:58:29.630Z,99831.33
2022-11-23T08:01:58.598Z,99840.05
2022-11-23T08:05:27.588Z,99844.30
2022-11-23T08:08:55.844Z,99845.14
2022-11-23T08:12:23.480Z,99844.59
2022-11-23T08:15:55.492Z,99851.79
2022-11-23T08:19:23.118Z,99856.23
2022-11-23T08:22:49.760Z,99860.45
2022-11-23T08:26:16.335Z,99861.88
2022-11-23T08:29:44.400Z,99862.08
2022-11-23T08:33:13.635Z,99863.52
2022-11-23T08:36:40.556Z,99871.20
2022-11-23T08:40:08.924Z,99875.23
2022-11-23T08:43:36.363Z,99874.77
2022-11-23T08:47:03.887Z,99873.06
2022-11-23T08:50:31.279Z,99868.61
2022-11-23T08:53:58.731Z,99863.42
2022-11-23T08:57:25.648Z,99870.16
2022-11-23T09:00:52.331Z,99862.63
2022-11-23T09:04:21.001Z,99853.73
2022-11-23T09:07:47.825Z,99850.70
2022-11-23T09:11:19.608Z,99846.21
2022-11-23T09:14:46.031Z,99843.88
2022-11-23T09:18:13.237Z,99846.13
2022-11-23T09:21:40.095Z,99848.89
2022-11-23T09:25:09.033Z,99855.30
2022-11-23T09:28:43.103Z,99859.16
2022-11-23T09:32:11.678Z,99848.30
2022-11-23T09:35:43.588Z,99850.67
2022-11-23T09:39:12.650Z,99845.89
2022-11-23T09:43:18.990Z,99842.20
2022-11-23T09:46:59.872Z,99840.38
2022-11-23T09:50:36.311Z,99840.73
2022-11-23T09:54:07.151Z,99838.41
2022-11-23T09:57:37.788Z,99838.67
2022-11-23T10:01:06.781Z,99843.49
2022-11-23T10:04:37.255Z,99837.61
2022-11-23T10:08:11.192Z,99841.16
2022-11-23T10:12:05.435Z,99834.64
2022-11-23T10:15:40.922Z,99840.74
2022-11-23T10:19:21.109Z,99839.16
2022-11-23T10:22:56.130Z,99843.16
2022-11-23T10:26:28.406Z,99841.56
2022-11-23T10:29:56.956Z,99841.84
2022-11-23T10:33:31.755Z,99837.64
2022-11-23T10:36:59.643Z,99836.23
2022-11-23T10:40:30.763Z,99834.65
2022-11-23T10:44:02.199Z,99835.98
2022-11-23T10:47:41.137Z,99834.95
2022-11-23T10:51:29.332Z,99830.57
2022-11-23T10:54:59.113Z,99827.39
2022-11-23T10:58:31.891Z,99822.27
2022-11-23T11:02:17.982Z,99821.23
2022-11-23T11:06:08.631Z,99819.41
2022-11-23T11:09:36.317Z,99807.53
2022-11-23T11:13:03.568Z,99812.81
2022-11-23T11:16:32.646Z,99807.25
2022-11-23T11:19:59.424Z,99806.29
2022-11-23T11:23:30.927Z,99807.08
2022-11-23T11:27:06.945Z,99805.72
2022-11-23T11:30:50.321Z,99803.65
2022-11-23T11:34:26.712Z,99803.25
2022-11-23T11:37:56.682Z,99803.84
2022-11-23T11:41:25.678Z,99804.95
2022-11-23T11:44:56.437Z,99808.31
2022-11-23T11:48:29.391Z,99809.95
2022-11-23T11:52:03.822Z,99804.83
2022-11-23T11:55:37.759Z,99797.80
2022-11-23T11:59:14.522Z,99792.54
2022-11-23T12:02:51.507Z,99800.42
2022-11-23T12:06:27.097Z,99800.02
2022-11-23T12:09:59.202Z,99800.23
2022-11-23T12:13:30.864Z,99796.20
2022-11-23T12:17:32.073Z,99790.39
2022-11-23T12:21:04.314Z,99788.56
2022-11-23T12:24:46.126Z,99786.71
2022-11-23T12:28:38.658Z,99791.81
2022-11-23T12:32:18.500Z,99784.73
2022-11-23T12:36:04.150Z,99787.27
2022-11-23T12:39:55.743Z,99787.02
2022-11-23T12:43:33.558Z,99787.71
2022-11-23T12:47:15.169Z,99781.31
2022-11-23T12:50:49.432Z,99787.55
2022-11-23T12:54:37.345Z,99788.37
2022-11-23T12:58:10.726Z,99784.78
2022-11-23T13:01:41.680Z,99785.89
2022-11-23T13:05:32.744Z,99790.58
2022-11-23T13:09:18.131Z,99789.31
2022-11-23T13:13:27.655Z,99793.21
2022-11-23T13:17:07.911Z,99794.04
2022-11-23T13:21:04.210Z,99794.56
2022-11-23T13:24:36.620Z,99793.06
2022-11-23T13:28:05.980Z,99797.65
2022-11-23T13:31:36.289Z,99804.13
2022-11-23T13:35:03.390Z,99805.59
2022-11-23T13:38:40.645Z,99807.41
2022-11-23T13:42:11.425Z,99810.09
2022-11-23T13:45:38.643Z,99811.02
2022-11-23T13:49:05.519Z,99813.60
2022-11-23T13:52:36.451Z,99816.16
2022-11-23T13:56:31.989Z,99817.25
2022-11-23T14:00:35.902Z,99818.78
2022-11-23T14:04:20.770Z,99821.33
2022-11-23T14:07:48.069Z,99823.36
2022-11-23T14:11:18.943Z,99826.83
2022-11-23T14:14:56.458Z,99823.82
2022-11-23T14:18:41.682Z,99825.48
2022-11-23T14:22:22.780Z,99826.08
2022-11-23T14:25:58.594Z,99832.57
2022-11-23T14:29:32.639Z,99838.30
2022-11-23T14:33:15.487Z,99841.91
2022-11-23T14:36:50.876Z,99840.76
2022-11-23T14:40:25.027Z,99849.23
2022-11-23T14:43:52.588Z,99846.36
2022-11-23T14:47:29.565Z,99848.55
2022-11-23T14:51:01.836Z,99847.17
2022-11-23T14:54:30.384Z,99850.49
2022-11-23T14:58:00.883Z,99851.17
2022-11-23T15:01:30.065Z,99851.40
2022-11-23T15:05:06.250Z,99852.65
2022-11-23T15:08:38.496Z,99857.96
2022-11-23T15:12:21.712Z,99859.05
2022-11-23T15:15:52.695Z,99862.65
2022-11-23T15:19:28.578Z,99864.41
2022-11-23T15:22:55.486Z,99869.96
2022-11-23T15:26:46.812Z,99877.95
2022-11-23T15:30:22.750Z,99877.08
2022-11-23T15:33:59.180Z,99873.73
2022-11-23T15:37:27.196Z,99880.91
2022-11-23T15:41:07.593Z,99881.89
2022-11-23T15:44:39.907Z,99877.06
2022-11-23T15:48:12.077Z,99881.27
2022-11-23T15:51:42.511Z,99875.54
2022-11-23T15:55:16.303Z,99872.20
2022-11-23T15:58:41.885Z,99869.23
2022-11-23T16:02:19.677Z,99867.55
2022-11-23T16:05:47.306Z,99871.36
2022-11-23T16:09:51.003Z,99873.40
2022-11-23T16:13:39.787Z,99866.08
2022-11-23T16:17:16.317Z,99864.73
2022-11-23T16:20:51.922Z,99856.63
2022-11-23T16:24:23.365Z,99859.52
2022-11-23T16:28:00.055Z,99857.61
2022-11-23T16:31:33.097Z,99858.63
2022-11-23T16:35:10.464Z,99861.93
2022-11-23T16:38:38.068Z,99869.98
2022-11-23T16:42:05.434Z,99874.04
2022-11-23T16:45:32.821Z,99875.39
2022-11-23T16:49:00.904Z,99873.39
2022-11-23T16:52:27.967Z,99871.80
2022-11-23T16:55:59.605Z,99869.83
2022-11-23T16:59:26.580Z,99876.44
2022-11-23T17:02:53.287Z,99881.08
2022-11-23T17:06:23.764Z,99875.69
2022-11-23T17:09:50.398Z,99876.05
2022-11-23T17:13:30.631Z,99882.44
2022-11-23T17:17:00.209Z,99886.02
2022-11-23T17:20:26.843Z,99886.93
2022-11-23T17:23:53.604Z,99888.25
2022-11-23T17:27:24.523Z,99886.96
2022-11-23T17:30:52.368Z,99886.83
2022-11-23T17:34:22.275Z,99881.36
2022-11-23T17:37:49.584Z,99877.29
2022-11-23T17:41:17.138Z,99872.66
2022-11-23T17:44:46.547Z,99875.54
2022-11-23T17:48:16.613Z,99880.80
2022-11-23T17:51:50.706Z,99879.16
2022-11-23T17:55:20.624Z,99880.78
2022-11-23T17:58:50.649Z,99885.01
2022-11-23T18:02:23.103Z,99885.52
2022-11-23T18:05:50.123Z,99889.92
2022-11-23T18:09:18.707Z,99888.52
2022-11-23T18:12:47.856Z,99885.34
2022-11-23T18:16:16.674Z,99885.57
2022-11-23T18:19:45.480Z,99888.34
2022-11-23T18:23:15.169Z,99890.27
2022-11-23T18:26:46.025Z,99888.27
2022-11-23T18:30:14.453Z,99880.63
2022-11-23T18:33:41.786Z,99881.80
2022-11-23T18:37:08.705Z,99884.02
2022-11-23T18:40:36.073Z,99887.29
2022-11-23T18:44:04.013Z,99887.02
2022-11-23T18:47:33.872Z,99887.75
2022-11-23T18:51:03.943Z,99891.81
2022-11-23T18:54:31.490Z,99890.15
2022-11-23T18:58:00.397Z,99889.88
2022-11-23T19:01:32.300Z,99891.89
2022-11-23T19:05:00.047Z,99891.20
2022-11-23T19:08:29.147Z,99892.17
2022-11-23T19:11:56.401Z,99886.52
2022-11-23T19:15:27.111Z,99885.96
2022-11-23T19:18:59.451Z,99881.81
2022-11-23T19:22:30.035Z,99887.39
2022-11-23T19:26:04.961Z,99892.80
2022-11-23T19:29:33.732Z,99896.62
2022-11-23T19:33:04.624Z,99896.61
2022-11-23T19:36:39.623Z,99892.65
2022-11-23T19:40:09.602Z,99899.10
2022-11-23T19:43:37.489Z,99903.67
2022-11-23T19:47:10.121Z,99918.29
2022-11-23T19:50:40.900Z,99915.11
2022-11-23T19:54:10.027Z,99920.33
2022-11-23T19:57:38.986Z,99916.52
2022-11-23T20:01:07.436Z,99923.29
2022-11-23T20:04:34.611Z,99921.55
2022-11-23T20:08:06.435Z,99924.91
2022-11-23T20:11:37.860Z,99922.60
2022-11-23T20:15:07.457Z,99918.76
2022-11-23T20:18:34.476Z,99915.48
2022-11-23T20:22:01.981Z,99917.46
2022-11-23T20:25:34.281Z,99919.96
2022-11-23T20:29:02.180Z,99921.96
2022-11-23T20:32:29.791Z,99919.37
2022-11-23T20:36:10.761Z,99917.65
2022-11-23T20:39:40.422Z,99920.45
2022-11-23T20:43:08.351Z,99920.08
2022-11-23T20:50:25.521Z,99920.80
2022-11-23T20:53:53.701Z,99923.54
2022-11-23T20:57:24.112Z,99922.91
2022-11-23T21:00:51.662Z,99923.91
2022-11-23T21:04:18.330Z,99929.86
2022-11-23T21:07:45.345Z,99935.38
2022-11-23T21:11:36.869Z,99932.39
2022-11-23T21:15:03.767Z,99932.75
2022-11-23T21:18:30.567Z,99937.90
2022-11-23T21:21:58.232Z,99946.21
2022-11-23T21:25:25.335Z,99943.49
2022-11-23T21:28:52.537Z,99944.61
2022-11-23T21:32:19.677Z,99951.77
2022-11-23T21:35:47.956Z,99950.65
2022-11-23T21:39:16.747Z,99955.48
2022-11-23T21:42:44.997Z,99952.39
2022-11-23T21:46:13.335Z,99956.98
2022-11-23T21:49:40.194Z,99954.52
2022-11-23T21:53:06.875Z,99955.73
2022-11-23T21:56:34.590Z,99954.48
2022-11-23T22:00:03.046Z,99963.14
2022-11-23T22:07:36.277Z,99962.55
2022-11-23T22:11:10.879Z,99961.13
2022-11-23T22:14:40.933Z,99965.48
2022-11-23T22:18:11.696Z,99968.27
2022-11-23T22:21:44.619Z,99972.70
2022-11-23T22:25:12.844Z,99967.47
2022-11-23T22:28:44.298Z,99962.98
2022-11-23T22:32:13.103Z,99966.23
2022-11-23T22:35:42.539Z,99974.13
2022-11-23T22:39:11.326Z,99971.59
2022-11-23T22:42:54.615Z,99965.98
2022-11-23T22:46:26.128Z,99966.84
2022-11-23T22:49:54.744Z,99966.98
2022-11-23T22:53:23.013Z,99979.27
2022-11-23T22:56:50.916Z,99980.30
2022-11-23T23:00:20.712Z,99981.80
2022-11-23T23:03:50.027Z,99977.56
2022-11-23T23:07:17.708Z,99977.73
2022-11-23T23:10:48.832Z,99978.49
2022-11-23T23:14:18.050Z,99984.77
2022-11-23T23:17:46.808Z,99983.10
2022-11-23T23:21:18.371Z,99987.84
2022-11-23T23:24:48.705Z,99988.73
2022-11-23T23:28:19.850Z,99990.44
2022-11-23T23:31:48.329Z,99994.60
2022-11-23T23:35:16.692Z,99993.61
2022-11-23T23:38:45.946Z,99993.38
2022-11-23T23:42:16.152Z,99993.94
2022-11-23T23:45:45.760Z,99990.04
2022-11-23T23:49:13.668Z,99981.91
2022-11-23T23:52:42.926Z,99979.29
2022-11-23T23:56:14.473Z,99982.91
2022-11-23T23:59:41.953Z,99986.23
